Time;durP1;ratioP1;P1;durP2;ratioP2;P2;SDS_P1;SDS_P2;PMS_P1;PMS_P2;Temp;Humidity;BMP_temperature;BMP_pressure;BME280_temperature;BME280_humidity;BME280_pressure;Samples;Min_cycle;Max_cycle;Signal;HPM_P1;HPM_P2
2021/01/14 00:00:54;;;;;;;6.03;1.48;;;4.70;99.90;;;4.78;86.38;101775.47;5029348;28;20120;-79
2021/01/14 00:03:20;;;;;;;10.52;1.65;;;4.70;99.90;;;4.82;85.70;101777.78;5033748;28;20037;-81
2021/01/14 00:05:46;;;;;;;8.18;1.63;;;4.70;99.90;;;4.67;85.96;101763.81;5040417;28;20168;-81
2021/01/14 00:08:12;;;;;;;6.15;1.10;;;4.70;99.90;;;4.58;86.00;101775.44;5023049;28;20511;-78
2021/01/14 00:10:38;;;;;;;10.98;1.67;;;4.70;99.90;;;4.49;86.07;101765.50;5029351;28;20030;-77
2021/01/14 00:13:09;;;;;;;8.85;2.08;;;4.70;99.90;;;4.50;86.38;101761.81;5028571;28;20034;-77
2021/01/14 00:15:36;;;;;;;13.73;1.50;;;4.70;99.90;;;4.57;86.20;101762.09;5028749;28;20041;-77
2021/01/14 00:18:03;;;;;;;7.80;1.67;;;4.70;99.90;;;4.56;85.80;101761.25;4990869;28;20065;-74
2021/01/14 00:20:29;;;;;;;4.88;1.65;;;4.70;99.90;;;4.33;85.82;101770.56;5008291;28;20084;-80
2021/01/14 00:22:55;;;;;;;5.10;1.45;;;4.70;99.90;;;4.36;85.67;101773.00;5015470;28;20491;-80
2021/01/14 00:25:21;;;;;;;6.32;1.77;;;4.70;99.90;;;4.33;85.69;101781.34;5015928;28;20079;-83
2021/01/14 00:27:47;;;;;;;14.85;1.92;;;4.60;99.90;;;4.30;86.19;101781.59;5039722;28;20431;-80
2021/01/14 00:30:25;;;;;;;6.25;1.40;;;4.60;99.90;;;4.30;85.27;101778.91;5008097;28;20556;-79
2021/01/14 00:32:50;;;;;;;6.72;1.35;;;4.50;99.90;;;4.36;84.77;101781.06;5033294;28;20529;-81
2021/01/14 00:35:16;;;;;;;7.75;1.20;;;4.50;99.90;;;4.46;84.84;101776.56;5023402;28;20084;-79
2021/01/14 00:37:51;;;;;;;7.53;2.05;;;4.50;99.90;;;4.39;84.92;101775.41;5030252;28;20500;-82
2021/01/14 00:40:28;;;;;;;4.53;1.50;;;4.50;99.90;;;4.56;84.79;101772.03;5015340;28;20040;-78
2021/01/14 00:43:05;;;;;;;9.55;2.38;;;4.60;99.90;;;4.69;83.54;101780.72;5024169;28;20095;-72
2021/01/14 00:45:32;;;;;;;4.55;1.52;;;4.60;99.90;;;4.44;85.10;101785.75;4999864;28;20038;-70
2021/01/14 00:48:00;;;;;;;12.65;1.50;;;4.70;99.90;;;4.54;85.02;101790.19;5028318;28;20048;-82
2021/01/14 00:50:26;;;;;;;4.78;1.20;;;4.70;99.90;;;4.60;84.81;101786.09;5009997;28;20037;-79
2021/01/14 00:52:53;;;;;;;6.65;1.15;;;4.70;99.90;;;4.50;84.31;101785.22;5039525;28;20060;-77
2021/01/14 00:55:19;;;;;;;6.82;1.17;;;4.70;99.90;;;4.59;84.91;101782.56;5032498;28;20053;-78
2021/01/14 00:57:46;;;;;;;9.73;1.08;;;4.80;99.90;;;4.66;83.43;101789.09;5028268;28;20053;-79
2021/01/14 01:00:16;;;;;;;16.13;2.22;;;4.80;99.90;;;4.50;83.18;101793.31;5030449;28;20065;-76
2021/01/14 01:02:51;;;;;;;3.78;1.40;;;4.70;99.90;;;4.46;83.75;101791.88;5033191;28;20048;-81
2021/01/14 01:05:20;;;;;;;4.47;1.02;;;4.70;99.90;;;4.34;83.19;101783.03;5027318;28;20037;-80
2021/01/14 01:07:51;;;;;;;5.63;1.13;;;4.60;99.90;;;4.40;82.81;101779.81;5023974;28;20099;-80
2021/01/14 01:10:18;;;;;;;8.27;1.27;;;4.60;99.90;;;4.30;82.82;101784.28;5011401;28;20044;-79
2021/01/14 01:12:49;;;;;;;7.65;0.90;;;4.60;99.90;;;4.22;82.52;101786.81;5016989;28;20376;-80
2021/01/14 01:15:15;;;;;;;4.60;2.00;;;4.50;99.90;;;4.22;82.83;101792.22;5040566;28;20030;-81
2021/01/14 01:17:41;;;;;;;13.13;1.85;;;4.50;99.90;;;4.24;82.35;101795.63;5031663;28;20216;-79
2021/01/14 01:20:07;;;;;;;8.00;1.67;;;4.50;99.90;;;4.18;81.73;101804.25;4990758;28;20025;-80
2021/01/14 01:22:33;;;;;;;6.80;1.30;;;4.40;99.90;;;4.23;82.06;101793.94;4991754;28;20038;-78
2021/01/14 01:24:59;;;;;;;7.80;1.35;;;4.40;99.90;;;4.31;80.97;101804.88;5018791;28;20108;-81
2021/01/14 01:27:26;;;;;;;6.80;1.10;;;4.40;99.90;;;4.22;81.51;101800.31;5000616;28;20036;-81
2021/01/14 01:29:52;;;;;;;7.60;1.20;;;4.40;99.90;;;4.30;81.38;101805.84;5024029;28;20064;-73
2021/01/14 01:32:18;;;;;;;5.35;1.30;;;4.40;99.90;;;4.39;81.15;101813.16;5027358;28;20038;-82
2021/01/14 01:34:43;;;;;;;5.45;0.90;;;4.40;99.90;;;4.20;80.99;101808.50;5009367;28;20064;-81
2021/01/14 01:37:09;;;;;;;4.60;1.40;;;4.30;99.90;;;4.32;81.07;101817.34;5039067;28;20076;-79
2021/01/14 01:39:35;;;;;;;3.63;0.80;;;4.40;99.90;;;4.09;81.02;101824.78;5027304;28;20029;-79
2021/01/14 01:42:01;;;;;;;3.63;1.02;;;4.40;99.90;;;4.10;81.08;101825.63;5027329;28;20042;-80
2021/01/14 01:44:27;;;;;;;5.32;1.35;;;4.40;99.90;;;4.18;80.86;101831.19;5024776;28;20124;-78
2021/01/14 01:47:01;;;;;;;8.60;1.00;;;4.40;99.90;;;4.21;81.22;101836.31;5011937;28;20034;-81
2021/01/14 01:49:27;;;;;;;5.90;1.15;;;4.30;99.90;;;4.40;79.97;101836.41;5008566;28;20586;-80
2021/01/14 01:51:53;;;;;;;4.40;1.20;;;4.30;99.90;;;4.11;81.47;101835.41;5018967;28;20034;-79
2021/01/14 01:54:20;;;;;;;2.65;0.80;;;4.30;99.90;;;4.27;81.51;101841.19;4997003;28;20591;-80
2021/01/14 01:56:48;;;;;;;5.05;1.20;;;4.40;99.90;;;4.34;81.19;101848.59;5025713;28;20049;-80
2021/01/14 01:59:17;;;;;;;4.20;0.82;;;4.40;99.90;;;4.26;81.08;101847.56;5024184;28;20059;-80
2021/01/14 02:01:43;;;;;;;6.30;0.95;;;4.40;99.90;;;4.25;80.99;101848.53;5030067;28;20053;-78
2021/01/14 02:04:11;;;;;;;2.17;0.73;;;4.40;99.90;;;4.14;81.36;101856.72;5030754;28;20043;-77
2021/01/14 02:07:05;;;;;;;6.10;1.48;;;4.40;99.90;;;4.13;81.74;101861.25;5021014;28;20041;-80
2021/01/14 02:09:36;;;;;;;3.60;1.02;;;4.40;99.90;;;4.01;82.43;101867.69;5028909;28;20117;-80
2021/01/14 02:12:05;;;;;;;2.40;0.90;;;4.40;99.90;;;4.07;81.87;101871.69;5043304;28;20037;-79
2021/01/14 02:14:34;;;;;;;2.30;0.75;;;4.30;99.90;;;3.95;82.38;101874.44;5044821;28;20488;-79
2021/01/14 02:17:00;;;;;;;8.93;1.27;;;4.30;99.90;;;3.97;80.97;101877.88;5029497;28;20484;-80
2021/01/14 02:19:30;;;;;;;3.97;0.70;;;4.30;99.90;;;4.41;79.53;101875.84;5043713;28;20038;-76
2021/01/14 02:22:07;;;;;;;4.13;1.27;;;4.30;99.90;;;4.21;80.29;101868.66;5041363;28;20366;-70
2021/01/14 02:24:49;;;;;;;7.53;1.48;;;4.30;99.90;;;4.30;79.51;101874.09;5026448;28;20061;-72
2021/01/14 02:27:16;;;;;;;2.90;0.77;;;4.30;99.90;;;4.26;79.21;101874.50;5018299;28;20050;-71
2021/01/14 02:29:43;;;;;;;3.42;1.73;;;4.30;99.90;;;4.19;78.76;101866.09;5030725;28;20125;-71
2021/01/14 02:32:16;;;;;;;4.05;1.50;;;4.30;99.90;;;4.18;78.78;101869.75;4995041;28;20120;-73
2021/01/14 02:34:42;;;;;;;4.47;0.80;;;4.30;99.90;;;4.34;78.22;101862.06;5045311;28;20103;-70
2021/01/14 02:37:08;;;;;;;1.88;0.70;;;4.30;99.90;;;4.24;78.93;101863.84;5019988;28;20109;-78
2021/01/14 02:45:47;;;;;;;4.85;1.00;;;4.40;99.90;;;4.25;78.83;101859.31;4983895;28;20050;-83
2021/01/14 02:48:20;;;;;;;2.33;1.17;;;4.50;99.90;;;4.09;78.47;101861.63;5044912;28;20048;-82
2021/01/14 02:50:52;;;;;;;6.57;1.25;;;4.40;99.90;;;4.06;78.89;101864.63;5038189;28;20036;-82
2021/01/14 02:53:19;;;;;;;8.75;0.93;;;4.40;99.90;;;4.06;78.68;101859.22;5014843;28;20399;-82
2021/01/14 02:55:45;;;;;;;10.82;1.58;;;4.60;99.90;;;4.00;79.22;101864.16;5032831;28;20041;-82
2021/01/14 02:58:11;;;;;;;2.45;0.80;;;4.40;99.90;;;4.10;79.01;101866.91;5014634;28;20103;-82
2021/01/14 03:00:37;;;;;;;2.75;0.90;;;4.40;99.90;;;4.01;79.14;101865.84;5043464;28;20026;-83
2021/01/14 03:03:03;;;;;;;7.72;1.23;;;4.40;99.90;;;4.01;79.62;101868.56;5045124;28;20501;-82
2021/01/14 03:05:28;;;;;;;4.85;1.15;;;4.40;99.90;;;3.98;79.94;101868.81;5010532;28;20044;-82
2021/01/14 03:07:54;;;;;;;4.15;0.73;;;4.60;99.90;;;3.90;79.82;101865.06;4971894;28;20140;-83
2021/01/14 03:10:20;;;;;;;6.95;0.90;;;4.40;99.90;;;3.93;79.72;101871.06;5010315;28;20150;-84
2021/01/14 03:12:45;;;;;;;9.63;1.35;;;4.40;99.90;;;3.83;80.24;101874.69;5037738;28;20061;-84
2021/01/14 03:15:12;;;;;;;3.10;1.10;;;4.60;99.90;;;3.89;80.27;101879.53;4995826;28;20105;-84
2021/01/14 03:17:37;;;;;;;3.63;1.30;;;4.30;99.90;;;3.84;80.40;101876.34;5013531;28;20037;-85
2021/01/14 03:20:08;;;;;;;5.80;1.13;;;4.40;99.90;;;3.88;80.39;101873.28;5032035;28;20446;-82
2021/01/14 03:22:38;;;;;;;3.17;0.60;;;4.30;99.90;;;3.81;80.75;101877.50;5033893;28;20484;-83
2021/01/14 03:25:08;;;;;;;10.23;1.33;;;4.30;99.90;;;3.88;80.23;101870.59;5031916;28;20038;-84
2021/01/14 03:27:43;;;;;;;5.95;1.25;;;4.30;99.90;;;3.86;79.54;101864.47;5015655;28;20048;-84
2021/01/14 03:30:11;;;;;;;;;;;4.30;99.90;;;3.65;79.61;101871.69;5034967;28;20115;-79
2021/01/14 03:32:37;;;;;;;2.63;0.98;;;4.20;99.90;;;3.68;79.74;101876.84;5013221;28;19996;-80
2021/01/14 03:35:05;;;;;;;5.45;0.80;;;4.20;99.90;;;3.65;79.52;101871.69;5005879;28;20500;-79
2021/01/14 03:37:31;;;;;;;6.07;1.42;;;4.10;99.90;;;3.71;78.68;101875.72;5012138;28;20046;-80
2021/01/14 03:39:57;;;;;;;4.25;0.90;;;4.10;99.90;;;3.75;78.90;101869.06;5027118;28;20045;-79
2021/01/14 03:42:23;;;;;;;4.43;1.10;;;4.10;99.90;;;3.69;79.46;101872.31;5036890;28;20045;-80
2021/01/14 03:44:49;;;;;;;5.57;1.40;;;4.10;99.90;;;3.72;79.24;101877.44;5048468;28;20069;-81
2021/01/14 03:47:16;;;;;;;5.93;1.58;;;4.10;99.90;;;3.81;79.00;101877.50;5028450;28;20091;-80
2021/01/14 03:49:42;;;;;;;1.48;0.50;;;4.10;99.90;;;3.76;78.99;101879.72;5023004;28;20026;-80
2021/01/14 03:52:12;;;;;;;4.88;1.38;;;4.10;99.90;;;4.03;77.65;101871.13;5039267;28;20060;-79
2021/01/14 03:54:38;;;;;;;5.95;0.98;;;4.10;99.90;;;4.09;77.70;101875.97;5017084;28;20073;-80
2021/01/14 03:57:05;;;;;;;2.70;0.60;;;4.20;99.90;;;4.28;76.95;101876.09;5029439;28;20038;-70
2021/01/14 03:59:31;;;;;;;5.22;1.10;;;4.20;99.90;;;4.08;77.51;101873.41;5012253;28;21759;-71
2021/01/14 04:02:07;;;;;;;3.80;1.13;;;4.10;99.90;;;3.98;77.82;101876.03;5024872;28;20049;-69
2021/01/14 04:04:43;;;;;;;4.13;1.05;;;4.20;99.90;;;3.81;78.23;101874.81;5042581;28;20034;-69
2021/01/14 04:07:14;;;;;;;3.05;0.80;;;4.10;99.90;;;3.81;78.27;101869.44;5014096;28;20026;-70
2021/01/14 04:09:41;;;;;;;7.85;1.25;;;4.10;99.90;;;3.94;78.17;101875.47;5019265;28;20042;-72
2021/01/14 04:12:08;;;;;;;2.72;1.33;;;4.10;99.90;;;3.95;77.61;101874.44;5001407;28;20041;-81
2021/01/14 04:14:34;;;;;;;5.68;0.98;;;4.10;99.90;;;3.91;77.47;101875.72;5029738;28;20087;-79
2021/01/14 04:17:00;;;;;;;8.88;1.42;;;4.10;99.90;;;4.00;77.82;101880.31;5030817;28;20088;-73
2021/01/14 04:19:26;;;;;;;10.23;1.70;;;4.10;99.90;;;4.00;77.99;101883.00;5029330;28;20121;-72
2021/01/14 04:21:52;;;;;;;11.98;1.40;;;4.20;99.90;;;3.69;78.57;101881.25;5025653;28;20396;-71
2021/01/14 04:24:18;;;;;;;9.63;1.80;;;4.20;99.90;;;3.89;78.62;101885.78;5048580;28;20033;-74
2021/01/14 04:26:47;;;;;;;10.82;1.30;;;4.20;99.90;;;3.81;78.33;101888.28;4982398;28;20199;-70
2021/01/14 04:29:12;;;;;;;4.22;1.20;;;4.10;99.90;;;3.61;78.48;101875.66;5035817;28;20060;-77
2021/01/14 04:31:40;;;;;;;10.18;1.77;;;4.00;99.90;;;3.60;79.32;101884.72;5016246;28;20077;-75
2021/01/14 04:34:06;;;;;;;7.47;2.05;;;4.00;99.90;;;3.58;79.26;101882.16;5032799;28;20399;-73
2021/01/14 04:36:32;;;;;;;3.95;1.27;;;3.90;99.90;;;3.47;79.38;101889.41;5026801;28;20037;-74
2021/01/14 04:38:58;;;;;;;8.82;2.13;;;3.90;99.90;;;3.48;79.14;101885.75;5015196;28;20042;-75
2021/01/14 04:41:39;;;;;;;7.72;1.70;;;3.80;99.90;;;3.52;78.87;101887.19;5010801;28;20164;-75
2021/01/14 04:44:05;;;;;;;12.73;2.28;;;3.80;99.90;;;3.57;78.44;101882.28;5017027;28;20488;-77
2021/01/14 04:46:33;;;;;;;10.73;2.95;;;3.90;99.90;;;3.41;79.09;101887.22;4997252;28;20038;-74
2021/01/14 04:48:59;;;;;;;8.35;1.38;;;3.90;99.90;;;3.44;78.78;101889.66;5001610;28;20445;-78
2021/01/14 04:51:29;;;;;;;2.65;0.77;;;3.70;99.90;;;3.46;77.99;101893.09;4981387;28;20037;-74
2021/01/14 04:54:03;;;;;;;2.45;0.80;;;3.70;99.90;;;3.54;78.39;101895.97;4993331;28;20072;-77
2021/01/14 04:56:35;;;;;;;6.65;1.02;;;3.60;99.90;;;3.40;78.74;101893.59;5022763;28;20056;-75
2021/01/14 04:59:04;;;;;;;5.32;1.48;;;3.50;99.90;;;3.28;78.94;101901.69;5029758;28;20083;-74
2021/01/14 05:01:41;;;;;;;6.53;1.10;;;3.50;99.90;;;3.33;79.67;101892.41;5030525;28;20045;-71
2021/01/14 05:04:09;;;;;;;2.05;1.05;;;3.50;99.90;;;3.42;78.82;101903.25;5023470;28;20081;-77
2021/01/14 05:06:38;;;;;;;2.13;1.05;;;3.50;99.90;;;3.27;79.47;101908.06;5025908;28;20116;-78
2021/01/14 05:09:07;;;;;;;4.55;1.48;;;3.40;99.90;;;3.53;79.05;101905.91;5031290;28;20060;-74
2021/01/14 05:11:42;;;;;;;7.10;2.47;;;3.50;99.90;;;3.29;80.27;101907.94;5039374;28;20041;-73
2021/01/14 05:14:09;;;;;;;3.80;1.15;;;3.50;99.90;;;3.34;80.88;101915.63;5027938;28;20042;-75
2021/01/14 05:16:35;;;;;;;6.25;1.55;;;3.50;99.90;;;3.50;80.02;101913.38;5024838;28;20404;-78
2021/01/14 05:19:01;;;;;;;7.30;1.60;;;3.60;99.90;;;3.38;80.58;101911.72;5007191;28;20088;-83
2021/01/14 05:21:32;;;;;;;7.10;2.38;;;3.60;99.90;;;3.35;81.35;101910.13;5022940;28;20044;-83
2021/01/14 05:24:16;;;;;;;5.43;0.93;;;3.50;99.90;;;3.39;80.69;101913.41;5041592;28;20427;-83
2021/01/14 05:26:43;;;;;;;3.30;1.08;;;3.50;99.90;;;3.33;80.85;101916.63;5010072;28;20124;-82
2021/01/14 05:29:20;;;;;;;3.53;1.33;;;3.50;99.90;;;3.18;81.31;101924.97;5006875;28;20021;-79
2021/01/14 05:31:48;;;;;;;5.07;1.35;;;3.50;99.90;;;3.04;82.44;101919.88;5010105;28;20124;-81
2021/01/14 05:34:15;;;;;;;5.43;1.08;;;3.40;99.90;;;3.03;83.42;101923.56;5015847;28;20091;-78
2021/01/14 05:37:05;;;;;;;5.90;1.27;;;3.40;99.90;;;3.24;82.65;101931.69;4990626;28;20042;-77
2021/01/14 05:39:41;;;;;;;6.88;1.48;;;3.40;99.90;;;3.19;83.10;101921.28;5026364;28;20544;-79
2021/01/14 05:42:10;;;;;;;9.15;1.92;;;3.40;99.90;;;3.28;83.43;101917.84;5012284;28;20394;-77
2021/01/14 05:44:39;;;;;;;6.70;2.08;;;3.40;99.90;;;3.36;83.53;101921.75;5014699;28;20042;-82
2021/01/14 05:47:27;;;;;;;6.93;1.60;;;3.40;99.90;;;3.33;83.33;101916.63;5011877;28;20030;-75
2021/01/14 05:50:07;;;;;;;8.30;2.17;;;3.50;99.90;;;3.29;84.54;101919.56;5038551;28;20079;-79
2021/01/14 05:52:33;;;;;;;6.03;1.30;;;3.50;99.90;;;3.39;82.91;101913.41;5021470;28;20041;-80
2021/01/14 05:55:03;;;;;;;9.30;1.83;;;3.50;99.90;;;3.35;83.68;101917.34;5021605;28;20396;-78
2021/01/14 05:57:33;;;;;;;5.22;1.15;;;3.40;99.90;;;3.40;83.83;101920.50;5024112;28;20129;-77
2021/01/14 06:00:12;;;;;;;4.07;1.40;;;3.40;99.90;;;3.48;83.30;101918.03;5015225;28;20038;-79
2021/01/14 06:02:39;;;;;;;3.88;0.77;;;3.40;99.90;;;3.37;83.72;101921.63;5028961;28;20041;-76
2021/01/14 06:05:28;;;;;;;3.85;1.38;;;3.30;99.90;;;3.41;83.78;101927.59;5013618;28;20030;-70
2021/01/14 06:07:57;;;;;;;3.38;1.17;;;3.40;99.90;;;3.04;86.01;101930.66;5025514;28;20037;-74
2021/01/14 06:10:34;;;;;;;5.88;1.20;;;3.30;99.90;;;3.00;86.05;101928.31;5015141;28;20042;-78
2021/01/14 06:13:01;;;;;;;3.75;1.17;;;3.30;99.90;;;2.84;87.52;101923.31;4995597;28;20045;-71
2021/01/14 06:15:27;;;;;;;6.28;1.33;;;3.20;99.90;;;2.98;86.91;101933.81;5012964;28;20038;-78
2021/01/14 06:18:01;;;;;;;6.47;0.82;;;3.20;99.90;;;2.81;87.70;101931.66;5045610;28;20037;-71
2021/01/14 06:20:28;;;;;;;7.88;1.30;;;3.20;99.90;;;3.04;87.00;101930.66;5011149;28;20030;-71
2021/01/14 06:22:56;;;;;;;9.38;1.60;;;3.20;99.90;;;3.29;86.47;101919.56;5010175;28;20680;-70
2021/01/14 06:25:22;;;;;;;5.50;1.48;;;3.20;99.90;;;3.20;86.65;101931.06;5019741;28;20038;-72
2021/01/14 06:27:59;;;;;;;6.07;2.05;;;3.20;99.90;;;3.02;87.74;101927.22;5020821;28;20034;-80
2021/01/14 06:30:25;;;;;;;7.35;2.47;;;3.10;99.90;;;2.80;89.04;101927.25;5011043;28;20032;-77
2021/01/14 06:33:02;;;;;;;6.78;2.15;;;3.10;99.90;;;2.98;88.44;101930.28;5009064;28;20132;-81
2021/01/14 06:35:28;;;;;;;3.38;1.45;;;3.00;99.90;;;2.85;88.97;101930.41;4987501;28;20034;-72
2021/01/14 06:38:00;;;;;;;4.18;1.75;;;3.00;99.90;;;3.00;88.85;101939.94;5004283;28;20204;-74
2021/01/14 06:40:29;;;;;;;8.63;1.27;;;3.30;99.90;;;3.07;88.52;101949.19;5034749;28;20124;-74
2021/01/14 06:42:58;;;;;;;3.55;1.40;;;3.10;99.90;;;3.13;88.59;101943.34;4998020;28;20037;-72
2021/01/14 06:45:41;;;;;;;4.55;1.25;;;3.20;99.90;;;2.93;89.63;101952.16;5000939;28;20103;-72
2021/01/14 06:48:15;;;;;;;8.95;1.42;;;3.10;99.90;;;3.13;89.78;101951.41;5013672;28;20125;-78
2021/01/14 06:50:49;;;;;;;4.00;1.27;;;3.20;99.90;;;3.00;90.01;101955.22;5016574;28;20090;-76
2021/01/14 06:53:20;;;;;;;5.30;1.55;;;3.20;99.90;;;2.95;90.25;101963.63;5011520;28;20062;-73
2021/01/14 06:55:47;;;;;;;4.90;1.00;;;3.10;99.90;;;2.92;91.16;101962.06;5007255;28;20037;-74
2021/01/14 06:58:17;;;;;;;8.73;1.48;;;3.10;99.90;;;3.04;90.39;101960.22;4989199;28;20052;-77
2021/01/14 07:00:48;;;;;;;5.85;1.48;;;3.20;99.90;;;3.15;90.37;101951.28;5020992;28;20476;-79
2021/01/14 07:03:14;;;;;;;8.10;1.30;;;3.20;99.90;;;3.26;90.25;101962.88;5012018;28;20083;-73
2021/01/14 07:06:07;;;;;;;4.68;2.03;;;3.20;99.90;;;3.19;90.54;101956.28;5045609;28;20121;-72
2021/01/14 07:08:55;;;;;;;6.13;1.63;;;3.20;99.90;;;3.28;90.63;101960.88;5009249;28;20116;-79
2021/01/14 07:11:24;;;;;;;11.43;1.70;;;3.20;99.90;;;3.06;91.31;101973.53;5019921;28;20065;-78
2021/01/14 07:13:53;;;;;;;10.38;2.17;;;3.10;99.90;;;3.11;91.78;101969.50;5025323;28;20046;-77
2021/01/14 07:16:25;;;;;;;7.45;2.20;;;3.00;99.90;;;2.81;93.07;101969.28;5002396;28;20030;-70
2021/01/14 07:18:52;;;;;;;4.82;1.25;;;3.00;99.90;;;2.99;92.48;101965.09;5028058;28;20125;-71
2021/01/14 07:21:44;;;;;;;6.20;1.50;;;3.00;99.90;;;2.96;92.61;101970.72;5010833;28;20053;-70
2021/01/14 07:24:28;;;;;;;4.72;1.25;;;2.90;99.90;;;3.04;92.01;101973.69;5030781;28;20029;-71
2021/01/14 07:27:00;;;;;;;3.53;1.48;;;2.90;99.90;;;2.90;92.47;101976.59;5044233;28;20048;-70
2021/01/14 07:29:32;;;;;;;4.35;1.67;;;2.90;99.90;;;2.89;92.75;101980.28;5026480;28;20030;-71
2021/01/14 07:32:00;;;;;;;4.55;1.55;;;2.90;99.90;;;3.05;91.92;101980.72;5019935;28;20404;-77
2021/01/14 07:34:42;;;;;;;7.15;1.52;;;2.90;99.90;;;3.11;92.09;101985.63;4998409;28;20137;-73
2021/01/14 07:37:13;;;;;;;6.55;0.98;;;2.90;99.90;;;3.02;91.95;101991.75;5011492;28;20117;-75
2021/01/14 07:39:58;;;;;;;5.38;1.00;;;3.00;99.90;;;2.96;92.25;101992.25;5019087;28;20034;-71
2021/01/14 07:42:28;;;;;;;5.32;2.22;;;3.00;99.90;;;3.05;91.63;101990.66;5025554;28;20033;-70
2021/01/14 07:45:03;;;;;;;6.90;1.20;;;3.00;99.90;;;3.07;91.64;101994.06;4996257;28;20042;-70
2021/01/14 07:47:32;;;;;;;2.83;1.27;;;3.00;99.90;;;3.04;91.79;101995.19;5005842;28;20090;-72
2021/01/14 07:50:00;;;;;;;4.15;1.05;;;3.00;99.90;;;2.94;91.69;102002.25;5026657;28;20037;-73
2021/01/14 07:52:36;;;;;;;4.28;0.90;;;3.00;99.90;;;3.00;91.99;101999.09;5026977;28;20041;-71
2021/01/14 07:55:12;;;;;;;9.40;1.55;;;2.90;99.90;;;2.99;91.78;102010.81;5028480;28;20416;-72
2021/01/14 07:58:21;;;;;;;3.95;1.35;;;2.90;99.90;;;2.92;91.85;102017.69;5013095;28;20392;-71
2021/01/14 08:01:08;;;;;;;6.15;1.30;;;2.90;99.90;;;2.99;91.29;102012.66;5025020;28;20033;-72
2021/01/14 08:03:37;;;;;;;6.00;0.88;;;3.00;99.90;;;3.11;91.07;102017.91;5019743;28;20046;-71
2021/01/14 08:06:44;;;;;;;2.00;0.90;;;3.00;99.90;;;2.95;90.98;102025.47;5012367;28;20038;-69
2021/01/14 08:09:11;;;;;;;7.13;1.30;;;3.00;99.90;;;3.05;90.21;102029.16;5009456;28;20064;-70
2021/01/14 08:11:56;;;;;;;4.95;0.85;;;3.00;99.90;;;3.08;89.71;102039.66;5043301;28;20116;-70
2021/01/14 08:14:40;;;;;;;8.00;1.95;;;3.10;99.90;;;3.15;89.08;102038.22;5024448;28;20163;-70
2021/01/14 08:17:29;;;;;;;3.77;1.33;;;3.10;99.90;;;2.99;89.01;102032.34;5021586;28;20038;-71
2021/01/14 08:19:59;;;;;;;6.22;2.08;;;3.20;99.90;;;3.24;88.63;102034.78;5040748;28;20042;-71
2021/01/14 08:22:25;;;;;;;8.02;1.30;;;3.20;99.90;;;3.17;88.18;102033.53;4981223;28;20041;-77
2021/01/14 08:25:03;;;;;;;9.90;1.67;;;3.20;99.90;;;3.32;87.14;102031.47;5020097;28;20053;-73
2021/01/14 08:27:34;;;;;;;5.38;2.15;;;3.30;99.90;;;3.25;87.04;102031.13;5007431;28;20041;-73
2021/01/14 08:30:06;;;;;;;4.25;1.35;;;3.20;99.90;;;3.41;86.03;102032.53;5019339;28;20084;-74
2021/01/14 08:33:05;;;;;;;6.32;1.60;;;3.30;99.90;;;3.44;85.70;102030.47;5025166;28;20041;-74
2021/01/14 08:35:41;;;;;;;3.58;1.20;;;3.30;99.90;;;3.39;85.00;102042.56;5002912;28;20030;-74
2021/01/14 08:38:13;;;;;;;4.53;1.35;;;3.30;99.90;;;3.46;85.08;102043.81;5024711;28;20042;-73
2021/01/14 08:40:41;;;;;;;6.78;1.85;;;3.40;99.90;;;3.31;84.47;102036.97;5028382;28;20026;-71
2021/01/14 08:43:09;;;;;;;5.78;1.52;;;3.40;99.90;;;3.54;84.04;102035.94;5029768;28;20038;-70
2021/01/14 08:45:56;;;;;;;2.90;1.10;;;3.40;99.90;;;3.70;83.07;102040.94;5021215;28;20072;-75
2021/01/14 08:48:25;;;;;;;1.95;1.10;;;3.50;99.90;;;3.65;83.03;102039.47;5034021;28;20033;-71
2021/01/14 08:50:54;;;;;;;7.10;1.40;;;3.50;99.90;;;3.72;82.50;102031.75;5035768;28;20036;-71
2021/01/14 08:53:24;;;;;;;6.10;1.58;;;3.60;99.90;;;3.55;83.20;102040.34;5030407;28;20042;-74
2021/01/14 08:55:59;;;;;;;4.65;1.33;;;3.60;99.90;;;3.41;82.95;102041.47;5029189;28;20053;-72
2021/01/14 08:58:46;;;;;;;6.85;1.67;;;3.60;99.90;;;3.39;83.36;102045.25;5022371;28;20070;-82
2021/01/14 09:01:26;;;;;;;2.15;1.10;;;3.60;99.90;;;3.43;81.69;102046.75;5015007;28;20124;-71
2021/01/14 09:03:54;;;;;;;6.15;2.15;;;3.60;99.90;;;3.59;81.46;102041.81;5008281;28;20038;-72
2021/01/14 09:06:40;;;;;;;8.57;2.92;;;3.60;99.90;;;3.40;81.62;102045.16;5029611;28;20034;-69
2021/01/14 09:09:09;;;;;;;6.18;1.75;;;3.60;99.90;;;3.57;81.26;102051.88;5005959;28;20042;-72
2021/01/14 09:11:36;;;;;;;3.42;0.90;;;3.60;99.90;;;3.49;81.24;102046.25;5026465;28;20095;-71
2021/01/14 09:14:13;;;;;;;4.85;1.48;;;3.60;99.90;;;3.43;81.76;102054.81;5019893;28;21065;-70
2021/01/14 09:16:44;;;;;;;9.48;1.33;;;3.70;99.90;;;3.62;81.61;102055.00;5032713;28;20483;-68
2021/01/14 09:19:18;;;;;;;7.68;1.92;;;3.70;99.90;;;3.58;80.73;102053.56;5002661;28;20037;-70
2021/01/14 09:21:45;;;;;;;7.32;0.98;;;3.70;99.90;;;3.51;81.17;102057.72;5019087;28;20137;-69
2021/01/14 09:24:13;;;;;;;10.38;1.50;;;3.70;99.90;;;3.66;80.65;102056.47;5038717;28;20028;-74
2021/01/14 09:26:41;;;;;;;2.20;1.13;;;3.70;99.90;;;3.53;80.84;102051.25;5013375;28;20045;-73
2021/01/14 09:29:12;;;;;;;5.35;1.65;;;3.80;99.90;;;3.68;79.99;102049.16;5006470;28;20750;-77
2021/01/14 09:31:42;;;;;;;5.00;1.13;;;3.80;99.90;;;3.86;79.48;102058.38;5034329;28;20044;-79
2021/01/14 09:34:08;;;;;;;14.02;2.03;;;3.80;99.90;;;3.98;79.04;102054.66;5011126;28;20030;-78
2021/01/14 09:36:35;;;;;;;4.75;1.00;;;4.00;99.90;;;3.95;78.90;102052.22;5009684;28;20072;-76
2021/01/14 09:39:07;;;;;;;5.05;1.85;;;3.90;99.90;;;3.98;78.97;102060.06;5049174;28;20029;-78
2021/01/14 09:41:38;;;;;;;4.47;1.67;;;4.00;99.90;;;4.04;78.86;102064.09;5014067;28;20037;-76
2021/01/14 09:44:09;;;;;;;4.63;1.35;;;4.10;99.90;;;4.11;77.90;102053.66;5032148;28;20041;-81
2021/01/14 09:46:47;;;;;;;6.07;1.48;;;4.10;99.90;;;4.09;78.02;102069.94;5036119;28;20029;-82
2021/01/14 09:49:21;;;;;;;7.15;1.88;;;4.10;99.90;;;4.03;77.12;102064.22;5014482;28;20865;-83
2021/01/14 09:51:51;;;;;;;10.27;1.45;;;4.10;99.90;;;3.87;77.55;102070.88;5035220;28;20064;-86
2021/01/14 09:54:19;;;;;;;3.33;1.17;;;4.10;99.90;;;3.72;76.54;102060.53;5038900;28;20052;-81
2021/01/14 09:56:52;;;;;;;2.53;1.10;;;4.00;99.90;;;3.98;75.28;102056.50;5048361;28;20050;-81
2021/01/14 09:59:40;;;;;;;4.00;1.30;;;4.00;99.90;;;3.82;75.31;102067.72;5023774;28;20476;-78
2021/01/14 10:02:14;;;;;;;4.97;2.28;;;4.00;99.90;;;4.14;75.33;102050.72;5025230;28;20104;-79
2021/01/14 10:04:59;;;;;;;3.72;1.23;;;4.00;99.90;;;4.14;75.27;102048.00;5018014;28;20044;-78
2021/01/14 10:07:26;;;;;;;4.00;1.65;;;4.10;99.90;;;4.39;74.72;102047.66;5029668;28;20051;-78
2021/01/14 10:09:54;;;;;;;4.82;1.20;;;4.20;99.90;;;4.09;72.79;102058.31;5012077;28;20038;-72
2021/01/14 10:12:20;;;;;;;8.57;1.90;;;4.20;99.90;;;4.07;73.18;102060.25;5007620;28;20036;-72
2021/01/14 10:14:46;;;;;;;10.93;1.98;;;4.20;99.90;;;4.00;72.85;102060.78;5043034;28;20104;-73
2021/01/14 10:17:15;;;;;;;3.53;1.25;;;4.20;99.90;;;4.18;72.05;102068.31;5022753;28;20121;-74
2021/01/14 10:19:48;;;;;;;1.98;1.30;;;4.30;99.90;;;4.41;72.28;102059.13;5017963;28;20043;-74
2021/01/14 10:22:14;;;;;;;4.28;1.45;;;4.30;99.90;;;4.25;71.66;102053.34;5041124;28;20075;-73
2021/01/14 10:24:40;;;;;;;6.18;1.88;;;4.40;99.90;;;4.22;71.87;102057.16;4999270;28;20088;-72
2021/01/14 10:27:21;;;;;;;3.45;1.65;;;4.30;99.90;;;4.25;71.42;102056.91;5039257;28;20038;-73
2021/01/14 10:29:47;;;;;;;5.57;1.42;;;4.30;99.90;;;4.24;70.66;102054.34;4997690;28;20038;-72
2021/01/14 10:32:15;;;;;;;3.88;1.13;;;4.30;99.90;;;4.01;69.10;102067.91;5018099;28;20401;-74
2021/01/14 10:34:48;;;;;;;5.82;2.22;;;4.30;99.90;;;4.07;70.25;102054.88;5005705;28;20044;-73
2021/01/14 10:37:23;;;;;;;2.13;1.40;;;4.20;99.90;;;4.15;71.38;102047.03;5027717;28;20037;-73
2021/01/14 10:39:51;;;;;;;2.88;1.40;;;4.20;99.90;;;3.96;71.97;102056.63;5029685;28;20036;-72
2021/01/14 10:42:39;;;;;;;11.05;1.70;;;4.20;99.90;;;3.69;72.81;102061.63;5007795;28;20073;-73
2021/01/14 10:45:12;;;;;;;5.10;1.63;;;4.00;99.90;;;3.67;73.46;102052.81;5026542;28;20045;-69
2021/01/14 10:47:42;;;;;;;4.03;1.80;;;3.80;99.90;;;3.41;74.86;102067.53;5026517;28;20069;-75